Luke, Maryland
Current Conditions -  °F | °C
As of 5:15 AM on Saturday 22 Nov 2014 (Local Time) from K2G4 Reporting Station
Clear Clear  
Wind Chill: 17°   Ceiling: Unl
Heat Index: 27°   Visibility: 10mi
Dew Point: -22°   Wind: 9mph
Humidity: 11%   Direction: 210°SSW
Pressure: 30.31"   Gusts: NA
Location:  39.48°N, 79.06°W
Report Text: K2G4 221015Z AUTO 21008KT 10SM CLR M03/M30 A3031 RMK AO1
Loading
Personal Weather Stations






























Interactive Weather Map New forecast layout! Learn more

10-Day Weather Forecast

Advertisements
Track Severe Weather on mobile